createdAt,value
2018-08-04T00:00:19.914Z,65.40
2018-08-04T00:02:51.707Z,65.60
2018-08-04T00:05:19.584Z,66.00
2018-08-04T00:07:47.553Z,65.90
2018-08-04T00:10:19.321Z,66.00
2018-08-04T00:12:49.296Z,66.10
2018-08-04T00:15:17.278Z,66.20
2018-08-04T00:17:45.502Z,66.10
2018-08-04T00:20:13.638Z,66.30
2018-08-04T00:22:46.602Z,65.80
2018-08-04T00:27:42.068Z,66.10
2018-08-04T00:30:12.475Z,66.00
2018-08-04T00:32:40.759Z,66.10
2018-08-04T00:35:09.307Z,66.50
2018-08-04T00:37:37.349Z,66.50
2018-08-04T00:40:06.599Z,66.70
2018-08-04T00:42:34.406Z,67.00
2018-08-04T00:45:02.370Z,67.30
2018-08-04T00:47:30.300Z,67.50
2018-08-04T00:49:58.088Z,67.50
2018-08-04T00:54:53.547Z,67.90
2018-08-04T00:57:21.516Z,68.30
2018-08-04T00:59:49.274Z,68.70
2018-08-04T01:02:17.053Z,68.70
2018-08-04T01:04:44.883Z,68.40
2018-08-04T01:07:12.623Z,68.50
2018-08-04T01:09:40.472Z,68.90
2018-08-04T01:12:08.331Z,69.60
2018-08-04T01:14:36.267Z,70.10
2018-08-04T01:17:04.190Z,70.50
2018-08-04T01:19:33.057Z,70.30
2018-08-04T01:22:00.878Z,70.20
2018-08-04T01:24:28.729Z,69.80
2018-08-04T01:26:56.621Z,69.10
2018-08-04T01:29:24.520Z,69.10
2018-08-04T01:31:52.355Z,69.20
2018-08-04T01:34:20.289Z,69.60
2018-08-04T01:36:48.200Z,69.90
2018-08-04T01:39:16.081Z,69.90
2018-08-04T01:41:44.051Z,70.20
2018-08-04T01:44:11.813Z,70.30
2018-08-04T01:46:39.614Z,70.50
2018-08-04T01:49:07.515Z,70.60
2018-08-04T01:51:35.399Z,71.10
2018-08-04T01:54:03.355Z,71.30
2018-08-04T01:56:31.259Z,71.60
2018-08-04T01:58:59.268Z,72.50
2018-08-04T02:01:26.997Z,72.50
2018-08-04T02:03:54.771Z,72.20
2018-08-04T02:06:22.722Z,72.40
2018-08-04T02:08:50.611Z,72.40
2018-08-04T02:11:18.384Z,72.80
2018-08-04T02:13:46.267Z,73.20
2018-08-04T02:16:14.192Z,73.30
2018-08-04T02:18:42.086Z,73.40
2018-08-04T02:21:09.992Z,73.50
2018-08-04T02:23:37.796Z,73.30
2018-08-04T02:26:05.707Z,73.20
2018-08-04T02:28:33.693Z,73.00
2018-08-04T02:31:01.640Z,73.10
2018-08-04T02:33:29.396Z,73.30
2018-08-04T02:35:57.190Z,73.50
2018-08-04T02:38:25.206Z,73.50
2018-08-04T02:40:53.026Z,73.60
2018-08-04T02:43:20.860Z,73.70
2018-08-04T02:45:48.876Z,73.90
2018-08-04T02:48:16.736Z,74.10
2018-08-04T02:50:44.687Z,74.50
2018-08-04T02:53:12.535Z,74.50
2018-08-04T02:55:40.340Z,74.50
2018-08-04T02:58:08.238Z,74.80
2018-08-04T03:00:37.503Z,75.00
2018-08-04T03:03:05.681Z,75.30
2018-08-04T03:05:33.513Z,75.30
2018-08-04T03:08:01.392Z,75.80
2018-08-04T03:10:29.213Z,76.20
2018-08-04T03:12:57.201Z,76.30
2018-08-04T03:15:25.070Z,75.80
2018-08-04T03:17:52.859Z,75.30
2018-08-04T03:20:20.706Z,75.30
2018-08-04T03:22:48.578Z,74.60
2018-08-04T03:27:44.083Z,75.20
2018-08-04T03:30:11.910Z,75.50
2018-08-04T03:32:56.459Z,75.30
2018-08-04T03:35:24.256Z,75.40
2018-08-04T03:37:52.080Z,75.40
2018-08-04T03:40:19.840Z,75.30
2018-08-04T03:42:47.775Z,75.50
2018-08-04T03:45:15.507Z,75.50
2018-08-04T03:50:36.831Z,76.20
2018-08-04T03:53:04.696Z,76.50
2018-08-04T03:55:32.516Z,76.60
2018-08-04T03:58:00.309Z,76.80
2018-08-04T04:00:28.213Z,76.40
2018-08-04T04:02:56.010Z,76.60
2018-08-04T04:05:23.757Z,76.80
2018-08-04T04:07:51.650Z,77.00
2018-08-04T04:10:19.389Z,77.20
2018-08-04T04:12:47.231Z,76.90
2018-08-04T04:17:46.408Z,76.00
2018-08-04T04:20:14.899Z,75.30
2018-08-04T04:22:42.719Z,75.40
2018-08-04T04:25:10.418Z,75.40
2018-08-04T04:27:38.350Z,75.20
2018-08-04T04:30:06.243Z,75.10
2018-08-04T04:32:34.083Z,75.20
2018-08-04T04:35:01.934Z,75.60
2018-08-04T04:37:29.825Z,75.60
2018-08-04T04:39:57.775Z,75.80
2018-08-04T04:42:25.652Z,75.30
2018-08-04T04:44:53.729Z,75.80
2018-08-04T04:47:21.602Z,75.20
2018-08-04T04:49:49.455Z,75.40
2018-08-04T04:52:17.231Z,75.00
2018-08-04T04:54:45.206Z,74.70
2018-08-04T04:57:13.082Z,74.70
2018-08-04T04:59:40.959Z,74.60
2018-08-04T05:02:08.976Z,74.20
2018-08-04T05:04:36.810Z,73.90
2018-08-04T05:09:32.449Z,73.60
2018-08-04T05:12:00.544Z,73.60
2018-08-04T05:14:28.387Z,73.50
2018-08-04T05:17:06.054Z,72.60
2018-08-04T05:19:34.182Z,72.20
2018-08-04T05:22:02.162Z,71.90
2018-08-04T05:24:29.859Z,72.10
2018-08-04T05:26:57.603Z,71.70
2018-08-04T05:29:25.489Z,71.30
2018-08-04T05:31:53.440Z,71.20
2018-08-04T05:34:21.124Z,71.40
2018-08-04T05:36:48.989Z,71.80
2018-08-04T05:39:16.812Z,71.80
2018-08-04T05:41:44.771Z,71.90
2018-08-04T05:44:12.663Z,72.10
2018-08-04T05:46:40.524Z,72.60
2018-08-04T05:49:08.540Z,73.40
2018-08-04T05:51:36.390Z,74.30
2018-08-04T05:54:05.413Z,74.30
2018-08-04T05:56:33.515Z,75.30
2018-08-04T05:59:01.350Z,76.00
2018-08-04T06:01:29.167Z,76.90
2018-08-04T06:04:04.144Z,75.90
2018-08-04T06:06:31.862Z,75.50
2018-08-04T06:08:59.770Z,77.30
2018-08-04T06:11:27.561Z,77.60
2018-08-04T06:16:49.288Z,77.40
2018-08-04T06:19:17.144Z,77.50
2018-08-04T06:21:45.061Z,77.90
2018-08-04T06:24:18.696Z,77.90
2018-08-04T06:26:46.519Z,78.20
2018-08-04T06:29:14.296Z,79.40
2018-08-04T06:31:42.062Z,79.20
2018-08-04T06:36:37.885Z,80.40
2018-08-04T06:39:06.740Z,80.40
2018-08-04T06:41:34.549Z,80.80
2018-08-04T06:44:02.506Z,82.70
2018-08-04T06:46:30.922Z,81.80
2018-08-04T06:48:58.758Z,81.10
2018-08-04T06:51:26.827Z,81.20
2018-08-04T06:53:54.825Z,84.20
2018-08-04T06:56:22.736Z,84.10
2018-08-04T06:58:50.533Z,84.20
2018-08-04T07:01:18.379Z,83.00
2018-08-04T07:03:46.191Z,82.70
2018-08-04T07:06:14.041Z,83.50
2018-08-04T07:08:41.904Z,82.90
2018-08-04T07:11:09.790Z,82.30
2018-08-04T07:13:38.151Z,80.00
2018-08-04T07:16:06.083Z,78.30
2018-08-04T07:18:35.210Z,79.00
2018-08-04T07:21:03.400Z,77.60
2018-08-04T07:23:31.383Z,74.10
2018-08-04T07:25:59.228Z,73.80
2018-08-04T07:28:27.043Z,71.70
2018-08-04T07:30:54.786Z,70.80
2018-08-04T07:33:22.697Z,68.90
2018-08-04T07:35:50.508Z,69.60
2018-08-04T07:38:18.333Z,68.10
2018-08-04T07:40:46.293Z,69.40
2018-08-04T07:43:14.120Z,68.60
2018-08-04T07:45:42.036Z,68.20
2018-08-04T07:48:09.891Z,69.40
2018-08-04T07:50:38.441Z,69.60
2018-08-04T07:53:06.880Z,68.20
2018-08-04T07:58:02.591Z,69.10
2018-08-04T08:00:30.499Z,69.00
2018-08-04T08:02:58.342Z,66.00
2018-08-04T08:05:26.138Z,66.00
2018-08-04T08:07:53.918Z,65.40
2018-08-04T08:10:21.914Z,64.10
2018-08-04T08:12:50.045Z,64.60
2018-08-04T08:15:17.952Z,64.90
2018-08-04T08:17:45.787Z,65.30
2018-08-04T08:20:13.664Z,65.80
2018-08-04T08:22:42.785Z,65.40
2018-08-04T08:25:10.856Z,65.40
2018-08-04T08:27:39.371Z,64.10
2018-08-04T08:30:12.598Z,64.00
2018-08-04T08:32:40.809Z,64.10
2018-08-04T08:35:09.294Z,63.00
2018-08-04T08:37:37.221Z,63.50
2018-08-04T08:42:33.056Z,63.70
2018-08-04T08:45:01.143Z,63.30
2018-08-04T08:47:28.977Z,63.30
2018-08-04T08:49:56.827Z,63.00
2018-08-04T08:52:24.629Z,61.80
2018-08-04T08:54:52.405Z,61.90
2018-08-04T08:57:20.175Z,62.30
2018-08-04T08:59:47.943Z,61.30
2018-08-04T09:02:15.790Z,61.30
2018-08-04T09:04:43.651Z,61.00
2018-08-04T09:07:11.480Z,59.90
2018-08-04T09:09:39.294Z,59.40
2018-08-04T09:12:07.197Z,58.70
2018-08-04T09:14:35.238Z,57.70
2018-08-04T09:17:03.043Z,57.40
2018-08-04T09:19:31.133Z,55.90
2018-08-04T09:21:58.906Z,55.10
2018-08-04T09:24:26.939Z,54.80
2018-08-04T09:29:32.265Z,54.00
2018-08-04T09:32:01.152Z,52.70
2018-08-04T09:34:28.866Z,53.30
2018-08-04T09:36:56.751Z,52.30
2018-08-04T09:39:26.539Z,51.40
2018-08-04T09:41:56.384Z,51.90
2018-08-04T09:44:24.136Z,51.80
2018-08-04T09:46:52.448Z,50.50
2018-08-04T09:49:23.627Z,51.40
2018-08-04T09:51:57.164Z,49.50
2018-08-04T09:54:25.047Z,49.40
2018-08-04T09:56:52.966Z,48.80
2018-08-04T09:59:20.835Z,47.90
2018-08-04T10:01:54.242Z,46.80
2018-08-04T10:04:22.380Z,45.50
2018-08-04T10:06:50.238Z,45.40
2018-08-04T10:09:28.328Z,44.60
2018-08-04T10:11:56.107Z,44.30
2018-08-04T10:14:26.061Z,42.60
2018-08-04T10:16:56.643Z,42.60
2018-08-04T10:19:25.689Z,41.60
2018-08-04T10:21:53.737Z,42.50
2018-08-04T10:24:22.061Z,42.20
2018-08-04T10:26:50.046Z,41.60
2018-08-04T10:29:18.030Z,42.30
2018-08-04T10:31:46.334Z,42.10
2018-08-04T10:34:14.317Z,40.80
2018-08-04T10:36:42.732Z,40.80
2018-08-04T10:39:11.960Z,40.50
2018-08-04T10:41:40.031Z,41.00
2018-08-04T10:44:09.436Z,41.40
2018-08-04T10:46:37.818Z,41.60
2018-08-04T10:49:06.428Z,41.60
2018-08-04T10:51:35.001Z,40.70
2018-08-04T10:54:03.296Z,39.30
2018-08-04T10:56:31.450Z,39.60
2018-08-04T10:58:59.419Z,40.60
2018-08-04T11:01:27.411Z,39.10
2018-08-04T11:03:55.398Z,39.30
2018-08-04T11:06:23.182Z,40.20
2018-08-04T11:08:51.130Z,39.90
2018-08-04T11:16:14.467Z,39.60
2018-08-04T11:18:42.356Z,38.70
2018-08-04T11:21:10.499Z,38.30
2018-08-04T11:23:38.677Z,38.50
2018-08-04T11:26:07.023Z,38.20
2018-08-04T11:28:35.819Z,37.60
2018-08-04T11:31:04.230Z,37.40
2018-08-04T11:33:32.182Z,37.00
2018-08-04T11:36:00.073Z,37.70
2018-08-04T11:38:27.858Z,37.20
2018-08-04T11:40:55.728Z,37.10
2018-08-04T11:43:23.622Z,37.30
2018-08-04T11:45:51.521Z,36.30
2018-08-04T11:48:19.471Z,36.70
2018-08-04T11:50:47.409Z,35.60
2018-08-04T11:53:15.475Z,36.40
2018-08-04T11:55:43.388Z,35.50
2018-08-04T11:58:11.207Z,35.50
2018-08-04T12:00:39.347Z,35.50
2018-08-04T12:03:07.894Z,36.60
2018-08-04T12:05:36.412Z,36.10
2018-08-04T12:08:05.408Z,38.70
2018-08-04T12:10:33.527Z,37.00
2018-08-04T12:13:01.606Z,37.50
2018-08-04T12:15:29.690Z,38.40
2018-08-04T12:17:57.690Z,39.30
2018-08-04T12:20:25.968Z,39.30
2018-08-04T12:22:53.920Z,39.10
2018-08-04T12:25:21.863Z,39.00
2018-08-04T12:27:49.899Z,38.50
2018-08-04T12:30:17.895Z,37.40
2018-08-04T12:32:45.754Z,36.40
2018-08-04T12:35:13.851Z,37.40
2018-08-04T12:37:41.860Z,36.50
2018-08-04T12:40:10.358Z,36.60
2018-08-04T12:45:07.581Z,35.90
2018-08-04T12:47:36.568Z,35.10
2018-08-04T12:50:05.636Z,34.20
2018-08-04T12:52:33.710Z,38.20
2018-08-04T12:55:01.880Z,35.80
2018-08-04T12:57:29.890Z,35.40
2018-08-04T12:59:58.079Z,34.90
2018-08-04T13:02:26.000Z,34.50
2018-08-04T13:04:54.127Z,34.70
2018-08-04T13:07:22.011Z,34.80
2018-08-04T13:09:50.046Z,35.40
2018-08-04T13:12:18.005Z,35.50
2018-08-04T13:14:45.819Z,36.20
2018-08-04T13:17:13.824Z,35.40
2018-08-04T13:19:41.760Z,35.30
2018-08-04T13:22:09.866Z,36.30
2018-08-04T13:24:38.281Z,35.80
2018-08-04T13:27:07.334Z,36.80
2018-08-04T13:29:36.065Z,35.40
2018-08-04T13:32:04.871Z,35.70
2018-08-04T13:34:33.340Z,35.70
2018-08-04T13:37:01.263Z,36.20
2018-08-04T13:39:29.286Z,36.20
2018-08-04T13:41:57.151Z,36.80
2018-08-04T13:44:25.212Z,37.60
2018-08-04T13:46:53.314Z,36.50
2018-08-04T13:49:21.219Z,37.00
2018-08-04T13:51:49.228Z,37.90
2018-08-04T13:54:17.150Z,37.60
2018-08-04T13:56:45.371Z,38.60
2018-08-04T13:59:13.266Z,37.70
2018-08-04T14:01:41.303Z,37.50
2018-08-04T14:04:09.332Z,37.30
2018-08-04T14:06:37.761Z,37.40
2018-08-04T14:09:08.075Z,36.80
2018-08-04T14:11:36.410Z,36.50
2018-08-04T14:14:05.078Z,36.50
2018-08-04T14:16:33.210Z,35.40
2018-08-04T14:21:29.475Z,35.80
2018-08-04T14:23:57.668Z,35.70
2018-08-04T14:26:25.639Z,35.40
2018-08-04T14:28:53.500Z,36.50
2018-08-04T14:31:21.379Z,36.10
2018-08-04T14:33:49.629Z,35.80
2018-08-04T14:36:17.482Z,36.30
2018-08-04T14:38:45.462Z,35.70
2018-08-04T14:41:14.594Z,35.70
2018-08-04T14:43:42.468Z,37.30
2018-08-04T14:48:38.777Z,37.00
2018-08-04T14:51:07.251Z,36.10
2018-08-04T14:53:35.799Z,35.40
2018-08-04T14:56:04.401Z,35.10
2018-08-04T14:58:36.810Z,35.60
2018-08-04T15:01:05.183Z,35.80
2018-08-04T15:03:33.368Z,36.80
2018-08-04T15:06:01.410Z,37.40
2018-08-04T15:08:30.025Z,37.30
2018-08-04T15:10:57.958Z,37.80
2018-08-04T15:13:25.934Z,37.90
2018-08-04T15:15:53.872Z,38.30
2018-08-04T15:18:22.058Z,38.60
2018-08-04T15:20:50.071Z,38.70
2018-08-04T15:23:17.932Z,39.30
2018-08-04T15:25:45.801Z,38.60
2018-08-04T15:28:13.702Z,38.60
2018-08-04T15:30:41.638Z,38.60
2018-08-04T15:33:09.455Z,38.40
2018-08-04T15:35:37.692Z,37.60
2018-08-04T15:38:05.957Z,37.80
2018-08-04T15:40:34.203Z,38.10
2018-08-04T15:43:02.236Z,38.70
2018-08-04T15:45:30.161Z,38.60
2018-08-04T15:47:57.981Z,39.60
2018-08-04T15:50:31.705Z,39.50
2018-08-04T15:52:59.708Z,39.00
2018-08-04T15:55:27.592Z,38.40
2018-08-04T15:57:55.441Z,38.40
2018-08-04T16:02:51.158Z,38.10
2018-08-04T16:05:20.520Z,37.70
2018-08-04T16:07:48.421Z,37.10
2018-08-04T16:10:23.798Z,37.30
2018-08-04T16:12:51.620Z,37.60
2018-08-04T16:15:19.447Z,38.20
2018-08-04T16:17:51.072Z,38.30
2018-08-04T16:20:18.913Z,38.10
2018-08-04T16:22:46.869Z,38.70
2018-08-04T16:25:15.024Z,39.40
2018-08-04T16:27:42.972Z,39.40
2018-08-04T16:30:11.228Z,39.40
2018-08-04T16:32:39.810Z,40.10
2018-08-04T16:35:08.467Z,39.60
2018-08-04T16:37:36.402Z,40.20
2018-08-04T16:40:05.068Z,39.80
2018-08-04T16:42:33.273Z,39.70
2018-08-04T16:45:01.748Z,39.50
2018-08-04T16:47:29.580Z,39.80
2018-08-04T16:49:57.391Z,39.60
2018-08-04T16:52:25.195Z,39.70
2018-08-04T16:54:54.197Z,39.40
2018-08-04T16:57:22.039Z,38.80
2018-08-04T16:59:50.931Z,39.80
2018-08-04T17:02:18.823Z,39.50
2018-08-04T17:04:46.751Z,39.70
2018-08-04T17:07:14.684Z,39.50
2018-08-04T17:09:42.495Z,39.50
2018-08-04T17:12:10.396Z,39.60
2018-08-04T17:17:06.077Z,39.40
2018-08-04T17:19:34.003Z,39.80
2018-08-04T17:22:01.777Z,39.90
2018-08-04T17:24:29.591Z,40.20
2018-08-04T17:26:57.397Z,39.30
2018-08-04T17:29:25.257Z,39.60
2018-08-04T17:31:53.107Z,39.80
2018-08-04T17:34:24.037Z,39.90
2018-08-04T17:36:51.917Z,40.40
2018-08-04T17:39:19.987Z,40.30
2018-08-04T17:41:47.847Z,40.50
2018-08-04T17:44:15.643Z,41.10
2018-08-04T17:46:43.613Z,40.20
2018-08-04T17:49:11.448Z,41.00
2018-08-04T17:51:39.390Z,40.60
2018-08-04T17:54:07.241Z,40.20
2018-08-04T17:56:35.026Z,41.10
2018-08-04T17:59:02.922Z,41.10
2018-08-04T18:01:31.715Z,41.20
2018-08-04T18:03:59.816Z,40.80
2018-08-04T18:06:27.608Z,40.70
2018-08-04T18:08:55.702Z,41.30
2018-08-04T18:11:23.656Z,41.30
2018-08-04T18:13:52.743Z,41.30
2018-08-04T18:16:20.512Z,41.20
2018-08-04T18:18:48.651Z,41.90
2018-08-04T18:21:16.547Z,42.00
2018-08-04T18:23:44.402Z,41.60
2018-08-04T18:26:12.390Z,42.60
2018-08-04T18:28:40.854Z,42.80
2018-08-04T18:31:09.072Z,42.50
2018-08-04T18:33:37.627Z,42.60
2018-08-04T18:36:06.346Z,42.70
2018-08-04T18:38:34.820Z,43.10
2018-08-04T18:41:03.640Z,43.10
2018-08-04T18:43:32.704Z,43.40
2018-08-04T18:46:00.809Z,43.80
2018-08-04T18:48:29.028Z,43.80
2018-08-04T18:50:57.105Z,44.00
2018-08-04T18:53:25.234Z,44.40
2018-08-04T18:55:53.518Z,44.40
2018-08-04T18:58:21.474Z,44.70
2018-08-04T19:00:49.724Z,44.80
2018-08-04T19:03:17.765Z,45.90
2018-08-04T19:05:45.861Z,46.00
2018-08-04T19:08:13.921Z,46.10
2018-08-04T19:10:42.156Z,46.60
2018-08-04T19:13:10.714Z,46.90
2018-08-04T19:15:39.048Z,47.20
2018-08-04T19:18:07.347Z,47.40
2018-08-04T19:20:35.862Z,47.50
2018-08-04T19:23:06.655Z,48.00
2018-08-04T19:25:35.589Z,48.30
2018-08-04T19:28:04.692Z,48.30
2018-08-04T19:30:34.403Z,49.10
2018-08-04T19:33:02.522Z,49.60
2018-08-04T19:35:36.522Z,50.10
2018-08-04T19:38:05.624Z,50.40
2018-08-04T19:40:34.781Z,50.50
2018-08-04T19:43:02.741Z,50.80
2018-08-04T19:45:31.016Z,51.20
2018-08-04T19:47:58.995Z,51.60
2018-08-04T19:50:27.207Z,51.90
2018-08-04T19:52:55.104Z,52.10
2018-08-04T19:55:23.158Z,52.50
2018-08-04T19:57:51.095Z,52.80
2018-08-04T20:00:19.101Z,53.40
2018-08-04T20:02:46.994Z,53.30
2018-08-04T20:05:15.100Z,53.80
2018-08-04T20:07:42.960Z,53.40
2018-08-04T20:10:10.969Z,53.00
2018-08-04T20:12:53.051Z,52.90
2018-08-04T20:15:23.537Z,53.50
2018-08-04T20:17:51.517Z,54.00
2018-08-04T20:20:19.591Z,54.30
2018-08-04T20:22:47.540Z,54.90
2018-08-04T20:25:15.679Z,54.70
2018-08-04T20:27:43.664Z,55.00
2018-08-04T20:30:11.713Z,55.00
2018-08-04T20:32:39.837Z,55.00
2018-08-04T20:35:08.239Z,55.00
2018-08-04T20:37:36.507Z,55.00
2018-08-04T20:40:05.496Z,55.10
2018-08-04T20:42:35.936Z,55.00
2018-08-04T20:45:05.250Z,55.30
2018-08-04T20:47:34.049Z,55.30
2018-08-04T20:50:02.079Z,55.10
2018-08-04T20:52:29.915Z,55.00
2018-08-04T20:54:57.692Z,55.00
2018-08-04T20:57:25.640Z,55.40
2018-08-04T20:59:53.564Z,55.60
2018-08-04T21:02:21.544Z,55.70
2018-08-04T21:04:50.717Z,55.80
2018-08-04T21:07:18.752Z,56.20
2018-08-04T21:09:46.911Z,56.40
2018-08-04T21:12:14.866Z,56.40
2018-08-04T21:14:43.285Z,56.60
2018-08-04T21:17:11.539Z,56.80
2018-08-04T21:19:39.519Z,57.30
2018-08-04T21:22:08.097Z,57.30
2018-08-04T21:24:36.515Z,57.30
2018-08-04T21:27:06.287Z,57.70
2018-08-04T21:29:34.601Z,57.90
2018-08-04T21:32:02.739Z,57.50
2018-08-04T21:34:30.808Z,57.50
2018-08-04T21:36:58.813Z,58.10
2018-08-04T21:39:28.725Z,59.00
2018-08-04T21:41:56.693Z,59.70
2018-08-04T21:44:25.094Z,60.10
2018-08-04T21:46:53.143Z,57.00
2018-08-04T21:49:23.281Z,56.40
2018-08-04T21:51:59.983Z,56.60
2018-08-04T21:54:33.060Z,56.00
2018-08-04T21:57:02.162Z,56.50
2018-08-04T21:59:30.146Z,56.80
2018-08-04T22:01:58.300Z,57.10
2018-08-04T22:04:26.787Z,57.10
2018-08-04T22:07:38.204Z,57.80
2018-08-04T22:10:06.631Z,58.30
2018-08-04T22:12:36.655Z,58.90
2018-08-04T22:15:06.904Z,59.20
2018-08-04T22:17:35.943Z,59.40
2018-08-04T22:20:08.978Z,59.80
2018-08-04T22:22:37.544Z,61.10
2018-08-04T22:25:09.618Z,61.60
2018-08-04T22:27:38.918Z,62.50
2018-08-04T22:30:12.779Z,64.30
2018-08-04T22:32:43.362Z,63.70
2018-08-04T22:35:12.305Z,66.40
2018-08-04T22:37:41.284Z,68.20
2018-08-04T22:40:10.077Z,68.80
2018-08-04T22:42:38.606Z,66.80
2018-08-04T22:46:31.030Z,70.30
2018-08-04T22:48:59.006Z,72.60
2018-08-04T22:51:28.197Z,75.00
2018-08-04T22:53:56.451Z,71.50
2018-08-04T22:56:24.656Z,72.60
2018-08-04T22:58:52.565Z,73.10
2018-08-04T23:01:20.579Z,73.90
2018-08-04T23:03:48.502Z,74.00
2018-08-04T23:06:16.582Z,72.80
2018-08-04T23:08:44.610Z,72.70
2018-08-04T23:11:12.472Z,71.70
2018-08-04T23:13:40.435Z,72.20
2018-08-04T23:16:08.450Z,75.30
2018-08-04T23:18:36.660Z,74.30
2018-08-04T23:21:05.049Z,75.30
2018-08-04T23:23:33.142Z,77.70
2018-08-04T23:26:01.131Z,77.60
2018-08-04T23:28:29.150Z,77.90
2018-08-04T23:30:57.091Z,78.90
2018-08-04T23:33:25.045Z,79.30
2018-08-04T23:35:59.358Z,80.70
2018-08-04T23:38:27.330Z,81.60
2018-08-04T23:40:55.361Z,80.60
2018-08-04T23:43:23.432Z,80.80
2018-08-04T23:45:51.354Z,80.90
2018-08-04T23:48:19.227Z,81.30
2018-08-04T23:50:47.277Z,82.20
2018-08-04T23:53:15.138Z,82.50
2018-08-04T23:55:43.007Z,80.80
2018-08-04T23:58:11.025Z,82.00
